createdAt,value
2019-04-30T00:00:10.152Z,98.00
2019-04-30T00:02:42.046Z,98.00
2019-04-30T00:05:15.210Z,98.00
2019-04-30T00:07:41.327Z,98.00
2019-04-30T00:10:10.483Z,98.00
2019-04-30T00:12:39.698Z,98.00
2019-04-30T00:15:10.890Z,97.90
2019-04-30T00:17:39.088Z,98.10
2019-04-30T00:20:07.910Z,98.20
2019-04-30T00:22:41.267Z,98.20
2019-04-30T00:25:07.346Z,98.20
2019-04-30T00:27:36.161Z,98.20
2019-04-30T00:30:09.000Z,98.10
2019-04-30T00:32:43.468Z,98.10
2019-04-30T00:35:11.822Z,98.00
2019-04-30T00:37:38.526Z,97.90
2019-04-30T00:40:07.383Z,98.00
2019-04-30T00:42:36.371Z,98.10
2019-04-30T00:45:10.029Z,98.30
2019-04-30T00:47:39.438Z,98.30
2019-04-30T00:50:10.236Z,98.30
2019-04-30T00:52:39.097Z,98.20
2019-04-30T00:55:09.336Z,98.10
2019-04-30T00:57:43.821Z,98.00
2019-04-30T01:00:12.177Z,98.10
2019-04-30T01:03:05.232Z,98.20
2019-04-30T01:05:31.533Z,98.00
2019-04-30T01:08:00.342Z,98.00
2019-04-30T01:10:29.158Z,97.80
2019-04-30T01:13:01.804Z,97.80
2019-04-30T01:15:29.170Z,97.80
2019-04-30T01:17:59.370Z,97.90
2019-04-30T01:20:32.668Z,98.00
2019-04-30T01:23:03.153Z,98.10
2019-04-30T01:25:30.956Z,98.10
2019-04-30T01:27:59.936Z,98.10
2019-04-30T01:30:28.736Z,98.10
2019-04-30T01:33:01.051Z,98.10
2019-04-30T01:35:31.495Z,98.10
2019-04-30T01:37:59.623Z,98.10
2019-04-30T01:40:28.903Z,98.20
2019-04-30T01:42:59.317Z,98.30
2019-04-30T01:45:31.601Z,98.60
2019-04-30T01:48:05.325Z,98.60
2019-04-30T01:50:29.284Z,98.70
2019-04-30T01:52:59.121Z,98.80
2019-04-30T01:55:45.057Z,98.60
2019-04-30T01:58:19.389Z,98.60
2019-04-30T02:00:49.919Z,98.60
2019-04-30T02:03:19.345Z,98.80
2019-04-30T02:05:49.838Z,98.70
2019-04-30T02:08:19.549Z,98.70
2019-04-30T02:10:49.198Z,98.50
2019-04-30T02:13:19.072Z,98.60
2019-04-30T02:15:49.262Z,98.80
2019-04-30T02:18:19.532Z,98.60
2019-04-30T02:20:49.717Z,98.70
2019-04-30T02:23:19.606Z,98.60
2019-04-30T02:25:49.115Z,98.70
2019-04-30T02:28:19.019Z,98.60
2019-04-30T02:30:50.515Z,98.50
2019-04-30T02:33:19.822Z,98.70
2019-04-30T02:35:56.619Z,98.60
2019-04-30T02:38:39.494Z,98.60
2019-04-30T02:41:09.971Z,98.60
2019-04-30T02:43:42.106Z,98.70
2019-04-30T02:46:13.189Z,98.60
2019-04-30T02:48:43.318Z,98.70
2019-04-30T02:51:14.026Z,98.60
2019-04-30T02:54:03.647Z,98.70
2019-04-30T02:56:32.999Z,98.70
2019-04-30T02:59:03.770Z,98.70
2019-04-30T03:01:32.302Z,98.70
2019-04-30T03:04:01.196Z,98.60
2019-04-30T03:06:30.580Z,98.40
2019-04-30T03:09:01.160Z,98.50
2019-04-30T03:11:30.446Z,98.60
2019-04-30T03:13:59.560Z,98.60
2019-04-30T03:16:30.420Z,98.70
2019-04-30T03:19:03.917Z,99.00
2019-04-30T03:21:43.249Z,98.90
2019-04-30T03:24:15.091Z,99.00
2019-04-30T03:26:43.931Z,99.20
2019-04-30T03:29:12.783Z,99.30
2019-04-30T03:31:44.984Z,99.30
2019-04-30T03:34:18.044Z,99.40
2019-04-30T03:36:42.590Z,99.50
2019-04-30T03:39:11.497Z,99.50
2019-04-30T03:41:41.207Z,99.40
2019-04-30T03:44:18.555Z,99.50
2019-04-30T03:46:40.980Z,99.60
2019-04-30T03:49:10.608Z,99.60
2019-04-30T03:51:40.580Z,99.60
2019-04-30T03:54:10.377Z,99.60
2019-04-30T03:56:40.512Z,99.50
2019-04-30T03:59:10.510Z,99.40
2019-04-30T04:01:59.576Z,99.50
2019-04-30T04:04:30.945Z,99.60
2019-04-30T04:07:16.543Z,99.70
2019-04-30T04:09:56.151Z,99.90
2019-04-30T04:12:25.860Z,99.80
2019-04-30T04:14:54.616Z,99.80
2019-04-30T04:17:23.732Z,99.80
2019-04-30T04:19:54.061Z,99.80
2019-04-30T04:22:22.767Z,99.90
2019-04-30T04:24:51.615Z,99.90
2019-04-30T04:27:20.376Z,99.90
2019-04-30T04:29:50.974Z,99.90
2019-04-30T04:32:23.596Z,99.90
2019-04-30T04:34:50.688Z,99.90
2019-04-30T04:37:20.330Z,99.90
2019-04-30T04:39:50.118Z,99.90
2019-04-30T04:42:19.920Z,99.90
2019-04-30T04:44:50.253Z,99.90
2019-04-30T04:47:20.109Z,99.90
2019-04-30T04:49:53.022Z,99.90
2019-04-30T04:52:21.442Z,99.90
2019-04-30T04:54:50.959Z,99.90
2019-04-30T04:57:22.794Z,99.90
2019-04-30T04:59:50.590Z,99.90
2019-04-30T05:02:39.659Z,99.90
2019-04-30T05:05:09.631Z,99.90
2019-04-30T05:07:39.876Z,99.90
2019-04-30T05:10:09.847Z,99.90
2019-04-30T05:12:39.893Z,99.90
2019-04-30T05:15:09.592Z,99.90
2019-04-30T05:17:39.851Z,99.90
2019-04-30T05:20:09.968Z,99.90
2019-04-30T05:22:39.174Z,99.90
2019-04-30T05:25:08.821Z,99.90
2019-04-30T05:27:39.316Z,99.90
2019-04-30T05:30:09.713Z,99.90
2019-04-30T05:32:39.603Z,99.90
2019-04-30T05:35:09.527Z,99.90
2019-04-30T05:37:38.707Z,99.90
2019-04-30T05:40:09.195Z,99.90
2019-04-30T05:42:38.703Z,99.90
2019-04-30T05:45:09.294Z,99.90
2019-04-30T05:47:39.048Z,99.90
2019-04-30T05:50:09.243Z,99.90
2019-04-30T05:52:39.697Z,99.90
2019-04-30T05:55:08.849Z,99.90
2019-04-30T05:57:43.308Z,99.90
2019-04-30T06:00:10.050Z,99.90
2019-04-30T06:02:40.058Z,99.90
2019-04-30T06:05:09.692Z,99.90
2019-04-30T06:07:59.325Z,99.90
2019-04-30T06:10:35.860Z,99.90
2019-04-30T06:13:09.770Z,99.90
2019-04-30T06:15:40.408Z,99.90
2019-04-30T06:18:13.561Z,99.90
2019-04-30T06:20:39.821Z,99.90
2019-04-30T06:23:09.551Z,99.90
2019-04-30T06:25:55.646Z,99.90
2019-04-30T06:28:09.793Z,99.90
2019-04-30T06:30:39.698Z,99.90
2019-04-30T06:33:09.314Z,99.90
2019-04-30T06:35:40.158Z,99.90
2019-04-30T06:38:08.898Z,99.90
2019-04-30T06:40:39.139Z,99.90
2019-04-30T06:43:09.186Z,99.90
2019-04-30T06:45:38.811Z,99.90
2019-04-30T06:48:08.907Z,99.90
2019-04-30T06:50:39.326Z,99.90
2019-04-30T06:53:09.318Z,99.90
2019-04-30T06:55:39.249Z,99.90
2019-04-30T06:58:14.229Z,99.90
2019-04-30T07:00:40.425Z,99.90
2019-04-30T07:03:10.021Z,99.90
2019-04-30T07:05:39.250Z,99.90
2019-04-30T07:08:38.975Z,99.90
2019-04-30T07:11:16.117Z,99.90
2019-04-30T07:13:49.528Z,99.90
2019-04-30T07:16:20.357Z,99.90
2019-04-30T07:18:49.413Z,99.90
2019-04-30T07:21:19.772Z,99.90
2019-04-30T07:23:48.782Z,99.90
2019-04-30T07:26:19.815Z,99.90
2019-04-30T07:28:54.234Z,99.90
2019-04-30T07:31:19.196Z,99.80
2019-04-30T07:33:53.455Z,99.90
2019-04-30T07:36:19.668Z,99.90
2019-04-30T07:38:54.551Z,99.90
2019-04-30T07:41:19.132Z,99.80
2019-04-30T07:43:49.401Z,99.70
2019-04-30T07:46:20.016Z,99.80
2019-04-30T07:48:50.208Z,99.60
2019-04-30T07:51:21.049Z,99.30
2019-04-30T07:53:50.005Z,99.00
2019-04-30T07:56:25.729Z,99.00
2019-04-30T07:58:50.473Z,99.00
2019-04-30T08:01:19.775Z,99.50
2019-04-30T08:03:53.806Z,99.10
2019-04-30T08:06:23.115Z,99.30
2019-04-30T08:08:57.233Z,99.10
2019-04-30T08:11:26.181Z,99.30
2019-04-30T08:13:53.087Z,99.40
2019-04-30T08:16:22.138Z,98.60
2019-04-30T08:18:50.994Z,98.60
2019-04-30T08:21:19.805Z,98.50
2019-04-30T08:23:49.028Z,98.50
2019-04-30T08:26:18.790Z,98.50
2019-04-30T08:28:48.735Z,98.90
2019-04-30T08:31:19.538Z,98.50
2019-04-30T08:33:49.092Z,98.60
2019-04-30T08:36:19.680Z,98.60
2019-04-30T08:38:49.528Z,98.70
2019-04-30T08:41:19.316Z,98.50
2019-04-30T08:43:49.648Z,98.40
2019-04-30T08:46:19.161Z,98.90
2019-04-30T08:48:51.595Z,98.80
2019-04-30T08:51:19.262Z,99.00
2019-04-30T08:53:48.725Z,98.90
2019-04-30T08:56:21.606Z,98.80
2019-04-30T08:58:49.116Z,99.00
2019-04-30T09:01:19.626Z,98.60
2019-04-30T09:03:51.315Z,99.00
2019-04-30T09:06:22.101Z,98.40
2019-04-30T09:08:51.491Z,98.60
2019-04-30T09:11:27.250Z,98.90
2019-04-30T09:13:50.844Z,98.60
2019-04-30T09:16:19.591Z,98.40
2019-04-30T09:18:49.495Z,98.20
2019-04-30T09:21:18.755Z,98.20
2019-04-30T09:23:51.951Z,98.50
2019-04-30T09:26:18.807Z,98.50
2019-04-30T09:28:49.470Z,98.50
2019-04-30T09:31:19.766Z,98.00
2019-04-30T09:33:49.328Z,97.90
2019-04-30T09:36:20.597Z,97.90
2019-04-30T09:38:48.634Z,98.30
2019-04-30T09:41:19.188Z,97.90
2019-04-30T09:43:49.390Z,97.90
2019-04-30T09:46:26.324Z,97.60
2019-04-30T09:48:50.685Z,97.70
2019-04-30T09:51:20.630Z,97.30
2019-04-30T09:53:56.807Z,97.30
2019-04-30T09:56:21.867Z,97.30
2019-04-30T09:58:50.607Z,97.20
2019-04-30T10:01:21.921Z,97.20
2019-04-30T10:03:50.633Z,97.20
2019-04-30T10:06:19.949Z,97.10
2019-04-30T10:08:51.260Z,97.00
2019-04-30T10:11:32.653Z,96.90
2019-04-30T10:14:01.479Z,97.10
2019-04-30T10:16:31.848Z,97.30
2019-04-30T10:19:01.409Z,97.20
2019-04-30T10:21:30.513Z,96.90
2019-04-30T10:24:12.570Z,96.70
2019-04-30T10:26:29.839Z,96.90
2019-04-30T10:29:02.210Z,97.20
2019-04-30T10:31:30.992Z,97.50
2019-04-30T10:33:59.821Z,97.90
2019-04-30T10:36:29.538Z,97.50
2019-04-30T10:38:59.511Z,97.40
2019-04-30T10:41:29.040Z,97.40
2019-04-30T10:43:59.095Z,97.00
2019-04-30T10:46:28.076Z,97.10
2019-04-30T10:48:57.042Z,97.10
2019-04-30T10:51:25.901Z,96.90
2019-04-30T10:53:54.705Z,97.30
2019-04-30T10:56:23.486Z,97.00
2019-04-30T10:58:52.303Z,96.70
2019-04-30T11:01:21.130Z,96.80
2019-04-30T11:03:49.974Z,96.70
2019-04-30T11:06:19.207Z,96.90
2019-04-30T11:08:48.207Z,96.20
2019-04-30T11:11:17.214Z,96.40
2019-04-30T11:13:45.993Z,96.00
2019-04-30T11:16:15.614Z,96.20
2019-04-30T11:18:44.851Z,96.10
2019-04-30T11:21:15.673Z,96.40
2019-04-30T11:23:44.985Z,96.10
2019-04-30T11:26:14.700Z,96.30
2019-04-30T11:28:44.308Z,96.30
2019-04-30T11:31:24.257Z,95.70
2019-04-30T11:33:55.866Z,95.90
2019-04-30T11:36:29.206Z,95.80
2019-04-30T11:38:58.716Z,96.00
2019-04-30T11:41:31.104Z,95.90
2019-04-30T11:43:59.458Z,95.80
2019-04-30T11:46:34.388Z,95.60
2019-04-30T11:49:03.211Z,95.70
2019-04-30T11:51:31.986Z,95.70
2019-04-30T11:54:00.846Z,95.20
2019-04-30T11:56:29.588Z,95.40
2019-04-30T11:58:58.954Z,95.20
2019-04-30T12:01:29.631Z,95.20
2019-04-30T12:03:59.859Z,95.50
2019-04-30T12:06:28.812Z,95.00
2019-04-30T12:08:59.234Z,95.10
2019-04-30T12:11:32.426Z,95.20
2019-04-30T12:14:01.238Z,94.70
2019-04-30T12:16:30.052Z,94.90
2019-04-30T12:19:00.589Z,95.00
2019-04-30T12:21:29.223Z,95.40
2019-04-30T12:23:58.345Z,94.90
2019-04-30T12:26:28.866Z,94.70
2019-04-30T12:28:57.551Z,94.70
2019-04-30T12:31:26.863Z,94.70
2019-04-30T12:33:55.734Z,94.90
2019-04-30T12:36:24.516Z,94.90
2019-04-30T12:38:53.392Z,94.90
2019-04-30T12:41:22.192Z,94.80
2019-04-30T12:43:51.031Z,95.00
2019-04-30T12:46:21.295Z,94.60
2019-04-30T12:48:54.872Z,95.00
2019-04-30T12:51:45.876Z,94.50
2019-04-30T12:54:24.654Z,94.70
2019-04-30T12:57:04.175Z,94.30
2019-04-30T12:59:33.067Z,94.40
2019-04-30T13:02:01.882Z,94.50
2019-04-30T13:04:30.732Z,94.20
2019-04-30T13:07:02.054Z,94.60
2019-04-30T13:09:30.910Z,94.50
2019-04-30T13:12:01.227Z,94.30
2019-04-30T13:14:31.392Z,94.20
2019-04-30T13:17:00.797Z,94.20
2019-04-30T13:19:29.650Z,93.80
2019-04-30T13:22:00.720Z,93.60
2019-04-30T13:24:31.368Z,93.30
2019-04-30T13:27:00.270Z,93.50
2019-04-30T13:29:30.648Z,93.00
2019-04-30T13:31:59.482Z,93.20
2019-04-30T13:34:48.150Z,92.70
2019-04-30T13:37:16.952Z,92.20
2019-04-30T13:39:53.777Z,92.50
2019-04-30T13:42:24.178Z,91.90
2019-04-30T13:44:52.949Z,92.50
2019-04-30T13:47:21.823Z,92.70
2019-04-30T13:49:50.634Z,92.60
2019-04-30T13:52:19.450Z,91.50
2019-04-30T13:54:48.415Z,91.60
2019-04-30T13:57:17.179Z,91.70
2019-04-30T13:59:46.029Z,92.10
2019-04-30T14:02:15.676Z,91.60
2019-04-30T14:05:02.035Z,91.90
2019-04-30T14:07:49.625Z,91.90
2019-04-30T14:10:19.554Z,91.40
2019-04-30T14:12:53.587Z,91.70
2019-04-30T14:15:22.655Z,91.70
2019-04-30T14:17:51.439Z,91.50
2019-04-30T14:20:20.387Z,91.70
2019-04-30T14:22:49.221Z,91.60
2019-04-30T14:25:18.215Z,91.50
2019-04-30T14:27:51.727Z,91.60
2019-04-30T14:30:19.217Z,91.70
2019-04-30T14:32:50.606Z,91.60
2019-04-30T14:35:18.749Z,90.80
2019-04-30T14:37:49.658Z,90.50
2019-04-30T14:40:20.220Z,90.50
2019-04-30T14:42:57.276Z,88.70
2019-04-30T14:45:28.741Z,87.80
2019-04-30T14:48:03.261Z,87.70
2019-04-30T14:50:34.098Z,87.80
2019-04-30T14:53:04.533Z,87.00
2019-04-30T14:55:43.876Z,87.90
2019-04-30T14:58:17.220Z,86.60
2019-04-30T15:00:50.336Z,87.20
2019-04-30T15:03:20.776Z,87.00
2019-04-30T15:05:51.670Z,88.00
2019-04-30T15:08:20.082Z,88.80
2019-04-30T15:10:48.895Z,88.40
2019-04-30T15:13:19.386Z,89.60
2019-04-30T15:15:49.162Z,90.30
2019-04-30T15:18:19.159Z,90.40
2019-04-30T15:20:49.814Z,90.40
2019-04-30T15:23:21.896Z,90.00
2019-04-30T15:25:50.965Z,88.60
2019-04-30T15:28:19.781Z,87.90
2019-04-30T15:30:48.896Z,88.20
2019-04-30T15:33:19.598Z,88.60
2019-04-30T15:35:50.229Z,88.70
2019-04-30T15:38:19.348Z,88.60
2019-04-30T15:40:48.340Z,87.10
2019-04-30T15:43:18.722Z,86.60
2019-04-30T15:45:49.387Z,85.50
2019-04-30T15:48:19.623Z,84.90
2019-04-30T15:50:49.283Z,86.20
2019-04-30T15:53:19.392Z,84.70
2019-04-30T15:55:48.449Z,86.20
2019-04-30T15:58:24.715Z,86.20
2019-04-30T16:00:53.572Z,85.40
2019-04-30T16:03:26.723Z,86.50
2019-04-30T16:05:56.600Z,87.20
2019-04-30T16:08:28.942Z,88.20
2019-04-30T16:11:15.281Z,88.80
2019-04-30T16:13:49.521Z,88.50
2019-04-30T16:16:20.029Z,88.50
2019-04-30T16:18:50.445Z,89.40
2019-04-30T16:21:19.519Z,88.90
2019-04-30T16:23:49.100Z,88.90
2019-04-30T16:26:18.246Z,89.70
2019-04-30T16:28:49.352Z,89.70
2019-04-30T16:31:20.296Z,90.10
2019-04-30T16:33:49.142Z,90.30
2019-04-30T16:36:19.309Z,90.70
2019-04-30T16:38:49.828Z,90.90
2019-04-30T16:41:30.709Z,91.30
2019-04-30T16:43:49.359Z,91.50
2019-04-30T16:46:18.389Z,91.90
2019-04-30T16:48:49.143Z,92.00
2019-04-30T16:51:18.814Z,92.30
2019-04-30T16:53:48.672Z,92.30
2019-04-30T16:56:18.606Z,92.40
2019-04-30T16:59:00.089Z,92.60
2019-04-30T17:01:29.695Z,92.80
2019-04-30T17:04:03.251Z,92.80
2019-04-30T17:06:36.564Z,92.90
2019-04-30T17:09:08.555Z,92.90
2019-04-30T17:11:55.250Z,93.00
2019-04-30T17:14:26.323Z,93.00
2019-04-30T17:16:55.275Z,93.10
2019-04-30T17:19:24.040Z,93.10
2019-04-30T17:21:52.830Z,93.00
2019-04-30T17:24:21.747Z,93.10
2019-04-30T17:26:52.021Z,93.10
2019-04-30T17:29:20.834Z,93.20
2019-04-30T17:31:49.709Z,93.30
2019-04-30T17:34:20.105Z,93.40
2019-04-30T17:36:49.588Z,93.50
2019-04-30T17:39:20.196Z,93.30
2019-04-30T17:41:49.708Z,93.30
2019-04-30T17:44:18.803Z,93.30
2019-04-30T17:46:49.245Z,93.20
2019-04-30T17:49:18.970Z,93.30
2019-04-30T17:51:49.063Z,93.20
2019-04-30T17:54:17.983Z,93.20
2019-04-30T17:56:47.831Z,93.00
2019-04-30T17:59:18.262Z,93.10
2019-04-30T18:01:49.633Z,93.10
2019-04-30T18:04:18.738Z,93.20
2019-04-30T18:06:50.505Z,93.20
2019-04-30T18:09:19.535Z,93.30
2019-04-30T18:11:49.557Z,93.20
2019-04-30T18:14:18.810Z,93.30
2019-04-30T18:16:48.627Z,93.20
2019-04-30T18:19:24.836Z,93.30
2019-04-30T18:21:55.382Z,93.30
2019-04-30T18:24:31.464Z,93.20
2019-04-30T18:27:04.443Z,93.30
2019-04-30T18:29:33.247Z,93.20
2019-04-30T18:32:02.081Z,93.30
2019-04-30T18:34:31.091Z,92.90
2019-04-30T18:36:59.918Z,92.80
2019-04-30T18:39:28.949Z,92.70
2019-04-30T18:41:58.071Z,92.70
2019-04-30T18:44:26.812Z,92.60
2019-04-30T18:46:55.630Z,92.40
2019-04-30T18:49:24.479Z,92.10
2019-04-30T18:51:53.267Z,92.10
2019-04-30T18:54:22.114Z,92.00
2019-04-30T18:56:50.958Z,92.00
2019-04-30T18:59:19.765Z,91.90
2019-04-30T19:01:48.589Z,91.90
2019-04-30T19:04:18.950Z,91.90
2019-04-30T19:06:47.904Z,91.90
2019-04-30T19:09:21.080Z,91.80
2019-04-30T19:11:51.497Z,91.50
2019-04-30T19:14:24.672Z,91.60
2019-04-30T19:17:00.886Z,91.60
2019-04-30T19:19:34.274Z,91.70
2019-04-30T19:22:03.092Z,91.60
2019-04-30T19:24:31.871Z,91.50
2019-04-30T19:27:00.701Z,91.60
2019-04-30T19:29:29.521Z,91.70
2019-04-30T19:31:59.436Z,91.60
2019-04-30T19:34:29.612Z,91.60
2019-04-30T19:36:58.906Z,91.70
2019-04-30T19:39:29.253Z,91.70
2019-04-30T19:41:58.386Z,91.80
2019-04-30T19:44:29.339Z,91.90
2019-04-30T19:46:58.659Z,91.80
2019-04-30T19:49:29.850Z,91.90
2019-04-30T19:52:08.460Z,92.00
2019-04-30T19:54:30.765Z,92.00
2019-04-30T19:56:59.522Z,92.00
2019-04-30T19:59:29.412Z,92.00
2019-04-30T20:01:59.497Z,92.00
2019-04-30T20:04:34.173Z,92.00
2019-04-30T20:06:59.172Z,92.10
2019-04-30T20:09:29.537Z,92.10
2019-04-30T20:11:59.750Z,92.10
2019-04-30T20:14:29.409Z,92.20
2019-04-30T20:16:59.014Z,92.30
2019-04-30T20:19:28.983Z,92.30
2019-04-30T20:21:59.429Z,92.30
2019-04-30T20:24:29.514Z,92.20
2019-04-30T20:27:07.035Z,92.40
2019-04-30T20:29:30.706Z,93.40
2019-04-30T20:32:32.928Z,94.50
2019-04-30T20:34:50.557Z,95.10
2019-04-30T20:37:19.706Z,95.70
2019-04-30T20:39:50.419Z,96.10
2019-04-30T20:42:19.229Z,96.20
2019-04-30T20:44:48.950Z,96.50
2019-04-30T20:47:18.421Z,96.70
2019-04-30T20:49:49.019Z,96.90
2019-04-30T20:52:20.407Z,97.30
2019-04-30T20:54:48.883Z,97.80
2019-04-30T20:57:19.934Z,97.80
2019-04-30T20:59:48.865Z,97.90
2019-04-30T21:02:18.774Z,98.00
2019-04-30T21:04:48.214Z,98.10
2019-04-30T21:07:19.514Z,98.20
2019-04-30T21:09:48.880Z,98.40
2019-04-30T21:12:18.724Z,98.60
2019-04-30T21:14:48.539Z,98.30
2019-04-30T21:17:17.614Z,98.40
2019-04-30T21:19:46.469Z,97.90
2019-04-30T21:22:15.216Z,97.70
2019-04-30T21:24:44.044Z,98.10
2019-04-30T21:27:12.937Z,98.20
2019-04-30T21:29:41.781Z,98.00
2019-04-30T21:32:13.314Z,98.30
2019-04-30T21:34:46.550Z,98.70
2019-04-30T21:37:15.463Z,98.70
2019-04-30T21:39:44.205Z,98.80
2019-04-30T21:42:13.061Z,98.80
2019-04-30T21:44:41.893Z,98.90
2019-04-30T21:47:10.723Z,99.20
2019-04-30T21:49:42.443Z,98.90
2019-04-30T21:52:11.177Z,99.00
2019-04-30T21:54:40.014Z,98.90
2019-04-30T21:57:08.908Z,98.90
2019-04-30T21:59:38.816Z,98.80
2019-04-30T22:02:08.813Z,98.90
2019-04-30T22:04:37.652Z,99.00
2019-04-30T22:07:06.488Z,99.10
2019-04-30T22:09:35.239Z,98.90
2019-04-30T22:12:04.191Z,98.90
2019-04-30T22:14:33.003Z,99.10
2019-04-30T22:17:01.830Z,99.10
2019-04-30T22:19:30.661Z,99.10
2019-04-30T22:21:59.551Z,99.20
2019-04-30T22:24:30.367Z,98.80
2019-04-30T22:26:58.775Z,98.60
2019-04-30T22:29:38.772Z,99.00
2019-04-30T22:31:59.396Z,99.20
2019-04-30T22:34:28.802Z,99.20
2019-04-30T22:36:58.668Z,99.10
2019-04-30T22:39:29.915Z,99.10
2019-04-30T22:42:01.022Z,99.10
2019-04-30T22:44:29.867Z,99.00
2019-04-30T22:47:00.659Z,98.50
2019-04-30T22:49:29.214Z,98.70
2019-04-30T22:51:58.026Z,98.40
2019-04-30T22:54:26.828Z,98.20
2019-04-30T22:56:55.679Z,98.70
2019-04-30T22:59:24.372Z,98.80
2019-04-30T23:02:11.272Z,98.20
2019-04-30T23:04:41.690Z,98.70
2019-04-30T23:07:10.428Z,98.30
2019-04-30T23:09:39.314Z,98.30
2019-04-30T23:12:08.136Z,98.30
2019-04-30T23:14:36.956Z,98.40
2019-04-30T23:17:06.209Z,98.80
2019-04-30T23:19:35.020Z,98.80
2019-04-30T23:22:04.487Z,98.90
2019-04-30T23:24:33.327Z,98.90
2019-04-30T23:27:02.164Z,98.40
2019-04-30T23:29:30.902Z,99.10
2019-04-30T23:31:59.750Z,99.00
2019-04-30T23:34:28.489Z,99.00
2019-04-30T23:36:57.320Z,98.90
2019-04-30T23:39:26.292Z,99.00
2019-04-30T23:41:55.323Z,98.60
2019-04-30T23:44:24.137Z,98.70
2019-04-30T23:46:53.056Z,99.10
2019-04-30T23:49:21.935Z,99.00
2019-04-30T23:51:50.775Z,99.00
2019-04-30T23:54:21.714Z,98.90
2019-04-30T23:56:50.616Z,98.90
2019-04-30T23:59:19.402Z,99.00
